createdAt,value
2023-04-26T00:00:52.441Z,96913.19
2023-04-26T00:03:18.930Z,96910.06
2023-04-26T00:05:45.427Z,96906.94
2023-04-26T00:08:12.014Z,96910.41
2023-04-26T00:10:38.421Z,96911.34
2023-04-26T00:13:04.832Z,96921.53
2023-04-26T00:15:31.249Z,96915.50
2023-04-26T00:17:57.678Z,96914.47
2023-04-26T00:20:24.139Z,96919.31
2023-04-26T00:22:50.513Z,96918.63
2023-04-26T00:25:16.939Z,96919.69
2023-04-26T00:27:43.404Z,96921.19
2023-04-26T00:30:09.792Z,96914.31
2023-04-26T00:32:36.231Z,96913.75
2023-04-26T00:35:02.639Z,96921.19
2023-04-26T00:37:29.067Z,96914.00
2023-04-26T00:39:55.532Z,96909.84
2023-04-26T00:42:21.930Z,96916.31
2023-04-26T00:44:48.373Z,96914.13
2023-04-26T00:47:14.813Z,96920.38
2023-04-26T00:49:41.206Z,96921.72
2023-04-26T00:52:07.585Z,96918.94
2023-04-26T00:54:33.951Z,96919.75
2023-04-26T00:57:00.351Z,96922.94
2023-04-26T00:59:26.744Z,96918.97
2023-04-26T01:01:53.125Z,96921.09
2023-04-26T01:04:19.625Z,96915.50
2023-04-26T01:06:46.119Z,96923.94
2023-04-26T01:09:12.516Z,96924.38
2023-04-26T01:11:38.890Z,96926.50
2023-04-26T01:14:05.342Z,96932.19
2023-04-26T01:16:31.738Z,96924.94
2023-04-26T01:18:58.168Z,96927.25
2023-04-26T01:21:24.614Z,96932.41
2023-04-26T01:23:51.029Z,96931.81
2023-04-26T01:26:17.394Z,96933.38
2023-04-26T01:28:43.877Z,96932.13
2023-04-26T01:31:10.279Z,96927.69
2023-04-26T01:33:36.711Z,96921.06
2023-04-26T01:36:03.125Z,96930.38
2023-04-26T01:38:29.507Z,96926.03
2023-04-26T01:40:55.888Z,96924.41
2023-04-26T01:43:22.281Z,96926.28
2023-04-26T01:45:48.807Z,96926.59
2023-04-26T01:48:15.181Z,96927.13
2023-04-26T01:50:41.608Z,96933.72
2023-04-26T01:53:08.003Z,96928.09
2023-04-26T01:55:34.378Z,96929.28
2023-04-26T01:58:00.737Z,96926.00
2023-04-26T02:00:27.124Z,96926.88
2023-04-26T02:02:53.602Z,96931.03
2023-04-26T02:05:20.213Z,96933.06
2023-04-26T02:07:46.744Z,96937.31
2023-04-26T02:10:13.130Z,96931.19
2023-04-26T02:12:39.526Z,96926.38
2023-04-26T02:15:05.880Z,96931.13
2023-04-26T02:17:32.307Z,96927.28
2023-04-26T02:19:58.747Z,96926.72
2023-04-26T02:22:25.106Z,96931.59
2023-04-26T02:24:51.525Z,96921.34
2023-04-26T02:27:17.898Z,96921.47
2023-04-26T02:29:45.053Z,96918.09
2023-04-26T02:32:11.522Z,96919.53
2023-04-26T02:34:37.976Z,96913.00
2023-04-26T02:37:04.392Z,96916.97
2023-04-26T02:39:30.776Z,96920.56
2023-04-26T02:41:57.319Z,96913.59
2023-04-26T02:44:23.742Z,96925.53
2023-04-26T02:46:50.137Z,96918.19
2023-04-26T02:49:16.587Z,96910.59
2023-04-26T02:51:43.022Z,96916.22
2023-04-26T02:54:09.409Z,96909.78
2023-04-26T02:56:35.783Z,96916.41
2023-04-26T02:59:02.138Z,96919.94
2023-04-26T03:01:28.550Z,96920.63
2023-04-26T03:03:55.046Z,96924.25
2023-04-26T03:06:21.540Z,96919.59
2023-04-26T03:08:47.923Z,96917.44
2023-04-26T03:11:14.325Z,96911.75
2023-04-26T03:13:40.705Z,96924.81
2023-04-26T03:16:07.222Z,96915.84
2023-04-26T03:18:33.703Z,96915.06
2023-04-26T03:21:00.169Z,96921.16
2023-04-26T03:23:29.659Z,96921.22
2023-04-26T03:25:56.054Z,96912.84
2023-04-26T03:28:22.435Z,96915.28
2023-04-26T03:30:49.123Z,96909.97
2023-04-26T03:33:15.539Z,96905.31
2023-04-26T03:35:42.020Z,96922.19
2023-04-26T03:38:08.394Z,96919.34
2023-04-26T03:40:34.926Z,96917.72
2023-04-26T03:43:01.496Z,96921.94
2023-04-26T03:45:27.861Z,96913.81
2023-04-26T03:47:54.329Z,96912.16
2023-04-26T03:50:20.768Z,96914.63
2023-04-26T03:52:47.226Z,96914.25
2023-04-26T03:55:13.610Z,96915.47
2023-04-26T03:57:39.982Z,96907.94
2023-04-26T04:00:06.430Z,96910.63
2023-04-26T04:02:32.948Z,96911.97
2023-04-26T04:04:59.666Z,96916.28
2023-04-26T04:07:26.142Z,96913.19
2023-04-26T04:09:52.589Z,96915.47
2023-04-26T04:12:19.008Z,96915.50
2023-04-26T04:14:45.384Z,96912.00
2023-04-26T04:17:11.973Z,96909.03
2023-04-26T04:19:38.320Z,96922.09
2023-04-26T04:22:04.711Z,96919.06
2023-04-26T04:24:32.297Z,96913.75
2023-04-26T04:27:00.353Z,96919.00
2023-04-26T04:29:26.814Z,96921.06
2023-04-26T04:31:53.218Z,96922.94
2023-04-26T04:34:19.621Z,96919.53
2023-04-26T04:36:46.008Z,96917.09
2023-04-26T04:39:12.471Z,96920.59
2023-04-26T04:41:38.892Z,96924.47
2023-04-26T04:44:05.349Z,96922.81
2023-04-26T04:46:31.738Z,96925.88
2023-04-26T04:48:58.140Z,96922.78
2023-04-26T04:51:24.530Z,96922.19
2023-04-26T04:53:50.919Z,96926.28
2023-04-26T04:56:17.281Z,96929.72
2023-04-26T04:58:43.659Z,96931.81
2023-04-26T05:01:10.059Z,96937.50
2023-04-26T05:03:36.565Z,96939.97
2023-04-26T05:06:03.095Z,96944.84
2023-04-26T05:08:29.458Z,96947.88
2023-04-26T05:10:55.855Z,96945.59
2023-04-26T05:13:22.240Z,96955.94
2023-04-26T05:15:48.624Z,96952.13
2023-04-26T05:18:14.999Z,96954.78
2023-04-26T05:20:41.404Z,96954.16
2023-04-26T05:23:07.840Z,96959.75
2023-04-26T05:25:34.203Z,96968.53
2023-04-26T05:28:00.601Z,96975.09
2023-04-26T05:30:27.030Z,96969.16
2023-04-26T05:32:53.465Z,96974.47
2023-04-26T05:35:19.885Z,96971.75
2023-04-26T05:37:46.287Z,96969.84
2023-04-26T05:40:12.765Z,96967.84
2023-04-26T05:42:39.167Z,96969.56
2023-04-26T05:45:05.537Z,96977.13
2023-04-26T05:47:31.975Z,96977.50
2023-04-26T05:49:58.383Z,96977.75
2023-04-26T05:52:25.166Z,96971.44
2023-04-26T05:54:51.586Z,96970.25
2023-04-26T05:57:18.019Z,96973.97
2023-04-26T05:59:44.653Z,96975.47
2023-04-26T06:02:11.451Z,96976.31
2023-04-26T06:04:38.046Z,96971.16
2023-04-26T06:07:04.544Z,96973.19
2023-04-26T06:09:31.002Z,96977.66
2023-04-26T06:11:57.478Z,96978.97
2023-04-26T06:16:55.626Z,96981.41
2023-04-26T06:19:22.022Z,96978.53
2023-04-26T06:21:48.397Z,96984.88
2023-04-26T06:24:14.812Z,96981.25
2023-04-26T06:26:41.232Z,96986.28
2023-04-26T06:29:07.657Z,96975.00
2023-04-26T06:31:34.178Z,96977.38
2023-04-26T06:34:00.626Z,96963.47
2023-04-26T06:36:27.052Z,96965.75
2023-04-26T06:38:53.441Z,96971.50
2023-04-26T06:41:19.885Z,96973.81
2023-04-26T06:43:46.264Z,96967.91
2023-04-26T06:46:13.953Z,96968.75
2023-04-26T06:48:40.378Z,96969.22
2023-04-26T06:51:06.906Z,96971.09
2023-04-26T06:53:33.358Z,96963.22
2023-04-26T06:55:59.803Z,96972.56
2023-04-26T06:58:26.455Z,96973.56
2023-04-26T07:00:52.892Z,96966.78
2023-04-26T07:03:19.321Z,96969.75
2023-04-26T07:05:45.839Z,96958.97
2023-04-26T07:08:12.219Z,96966.03
2023-04-26T07:10:38.677Z,96956.38
2023-04-26T07:13:06.033Z,96958.16
2023-04-26T07:15:33.198Z,96963.25
2023-04-26T07:17:59.645Z,96953.16
2023-04-26T07:20:26.147Z,96960.81
2023-04-26T07:22:52.567Z,96953.75
2023-04-26T07:25:18.941Z,96948.88
2023-04-26T07:27:45.352Z,96951.78
2023-04-26T07:30:11.757Z,96948.06
2023-04-26T07:32:38.369Z,96945.50
2023-04-26T07:35:04.777Z,96945.47
2023-04-26T07:37:31.173Z,96945.63
2023-04-26T07:39:57.582Z,96941.19
2023-04-26T07:42:23.989Z,96945.56
2023-04-26T07:44:50.395Z,96945.13
2023-04-26T07:47:16.836Z,96947.41
2023-04-26T07:49:44.049Z,96949.00
2023-04-26T07:52:11.797Z,96940.41
2023-04-26T07:54:38.196Z,96947.59
2023-04-26T07:57:04.559Z,96932.44
2023-04-26T07:59:30.938Z,96933.75
2023-04-26T08:01:57.592Z,96937.34
2023-04-26T08:04:24.138Z,96936.72
2023-04-26T08:06:50.580Z,96935.13
2023-04-26T08:09:16.989Z,96932.28
2023-04-26T08:11:43.434Z,96931.56
2023-04-26T08:14:09.897Z,96930.75
2023-04-26T08:16:36.402Z,96927.53
2023-04-26T08:19:02.908Z,96928.81
2023-04-26T08:21:29.445Z,96934.66
2023-04-26T08:23:55.913Z,96931.72
2023-04-26T08:26:22.359Z,96927.25
2023-04-26T08:28:48.791Z,96927.34
2023-04-26T08:31:17.516Z,96934.50
2023-04-26T08:33:44.143Z,96928.56
2023-04-26T08:36:10.553Z,96924.06
2023-04-26T08:38:36.971Z,96927.28
2023-04-26T08:41:03.346Z,96914.13
2023-04-26T08:43:29.762Z,96926.75
2023-04-26T08:45:56.220Z,96928.97
2023-04-26T08:48:22.643Z,96921.06
2023-04-26T08:50:49.297Z,96928.56
2023-04-26T08:53:15.721Z,96923.00
2023-04-26T08:55:42.092Z,96933.06
2023-04-26T08:58:08.489Z,96934.16
2023-04-26T09:00:34.889Z,96935.47
2023-04-26T09:03:01.431Z,96923.69
2023-04-26T09:05:27.882Z,96924.13
2023-04-26T09:07:54.263Z,96933.34
2023-04-26T09:10:21.220Z,96927.03
2023-04-26T09:12:47.911Z,96925.91
2023-04-26T09:15:14.288Z,96920.88
2023-04-26T09:17:40.744Z,96929.53
2023-04-26T09:20:07.977Z,96927.09
2023-04-26T09:22:34.509Z,96922.47
2023-04-26T09:25:00.915Z,96918.88
2023-04-26T09:27:27.416Z,96914.00
2023-04-26T09:29:53.896Z,96911.06
2023-04-26T09:32:20.783Z,96907.38
2023-04-26T09:34:47.226Z,96898.59
2023-04-26T09:37:13.604Z,96897.88
2023-04-26T09:39:39.981Z,96903.56
2023-04-26T09:42:06.356Z,96907.88
2023-04-26T09:44:32.777Z,96905.81
2023-04-26T09:46:59.208Z,96898.84
2023-04-26T09:49:25.679Z,96900.31
2023-04-26T09:51:52.050Z,96899.47
2023-04-26T09:54:18.445Z,96896.19
2023-04-26T09:56:44.914Z,96903.94
2023-04-26T09:59:11.317Z,96898.97
2023-04-26T10:01:37.971Z,96891.09
2023-04-26T10:04:04.499Z,96893.25
2023-04-26T10:06:30.973Z,96890.34
2023-04-26T10:08:57.345Z,96892.13
2023-04-26T10:11:23.735Z,96897.81
2023-04-26T10:13:50.176Z,96886.59
2023-04-26T10:16:16.631Z,96888.25
2023-04-26T10:18:43.014Z,96883.25
2023-04-26T10:21:09.434Z,96878.47
2023-04-26T10:23:35.824Z,96871.34
2023-04-26T10:26:03.673Z,96864.94
2023-04-26T10:28:30.048Z,96852.63
2023-04-26T10:30:56.462Z,96851.13
2023-04-26T10:33:24.879Z,96840.91
2023-04-26T10:35:51.414Z,96853.00
2023-04-26T10:38:17.966Z,96842.00
2023-04-26T10:40:44.371Z,96839.03
2023-04-26T10:43:10.901Z,96842.00
2023-04-26T10:45:37.451Z,96847.00
2023-04-26T10:48:04.405Z,96833.94
2023-04-26T10:50:30.839Z,96842.50
2023-04-26T10:52:57.643Z,96840.91
2023-04-26T10:55:25.461Z,96838.22
2023-04-26T10:57:52.100Z,96833.38
2023-04-26T11:00:19.718Z,96830.97
2023-04-26T11:02:46.280Z,96822.88
2023-04-26T11:05:12.702Z,96820.44
2023-04-26T11:07:39.120Z,96832.56
2023-04-26T11:10:05.966Z,96823.94
2023-04-26T11:12:32.457Z,96818.59
2023-04-26T11:14:58.835Z,96809.44
2023-04-26T11:17:25.292Z,96812.66
2023-04-26T11:19:51.690Z,96805.09
2023-04-26T11:22:18.180Z,96814.25
2023-04-26T11:24:44.658Z,96818.81
2023-04-26T11:27:11.117Z,96814.81
2023-04-26T11:29:37.541Z,96811.31
2023-04-26T11:32:03.952Z,96802.97
2023-04-26T11:34:30.301Z,96789.22
2023-04-26T11:36:56.696Z,96798.25
2023-04-26T11:39:23.084Z,96804.75
2023-04-26T11:41:49.477Z,96796.25
2023-04-26T11:44:15.866Z,96784.31
2023-04-26T11:46:42.266Z,96779.94
2023-04-26T11:49:08.640Z,96775.94
2023-04-26T11:51:35.029Z,96773.84
2023-04-26T11:54:01.393Z,96778.09
2023-04-26T11:56:27.771Z,96779.66
2023-04-26T11:58:54.346Z,96776.13
2023-04-26T12:01:20.949Z,96769.56
2023-04-26T12:03:47.500Z,96778.69
2023-04-26T12:06:13.961Z,96778.09
2023-04-26T12:08:40.438Z,96771.56
2023-04-26T12:11:06.832Z,96765.53
2023-04-26T12:13:33.205Z,96774.00
2023-04-26T12:15:59.637Z,96773.47
2023-04-26T12:18:26.053Z,96771.06
2023-04-26T12:20:52.458Z,96770.91
2023-04-26T12:23:18.895Z,96758.47
2023-04-26T12:25:45.278Z,96767.56
2023-04-26T12:28:11.959Z,96770.13
2023-04-26T12:30:38.605Z,96772.66
2023-04-26T12:33:16.651Z,96783.16
2023-04-26T12:35:44.232Z,96768.38
2023-04-26T12:38:10.890Z,96771.50
2023-04-26T12:40:37.567Z,96772.50
2023-04-26T12:43:04.037Z,96759.47
2023-04-26T12:45:30.447Z,96768.00
2023-04-26T12:47:56.859Z,96759.19
2023-04-26T12:50:23.381Z,96759.34
2023-04-26T12:52:49.781Z,96762.34
2023-04-26T12:55:16.242Z,96753.13
2023-04-26T12:57:42.642Z,96749.69
2023-04-26T13:00:09.024Z,96752.84
2023-04-26T13:02:35.596Z,96744.69
2023-04-26T13:05:02.229Z,96748.84
2023-04-26T13:07:28.788Z,96737.91
2023-04-26T13:09:55.352Z,96746.88
2023-04-26T13:12:21.718Z,96739.25
2023-04-26T13:14:48.083Z,96744.94
2023-04-26T13:17:14.532Z,96745.81
2023-04-26T13:19:40.911Z,96733.44
2023-04-26T13:22:07.351Z,96737.56
2023-04-26T13:24:33.746Z,96736.81
2023-04-26T13:27:00.129Z,96736.50
2023-04-26T13:29:26.548Z,96741.97
2023-04-26T13:31:53.160Z,96739.66
2023-04-26T13:34:19.624Z,96740.91
2023-04-26T13:36:46.090Z,96735.38
2023-04-26T13:39:12.580Z,96725.09
2023-04-26T13:41:39.029Z,96710.53
2023-04-26T13:44:05.412Z,96707.31
2023-04-26T13:46:31.795Z,96715.25
2023-04-26T13:48:58.257Z,96706.59
2023-04-26T13:51:24.684Z,96720.03
2023-04-26T13:53:51.059Z,96717.25
2023-04-26T13:56:17.483Z,96703.63
2023-04-26T13:58:43.875Z,96699.91
2023-04-26T14:01:10.300Z,96702.25
2023-04-26T14:03:36.901Z,96711.56
2023-04-26T14:06:03.427Z,96702.03
2023-04-26T14:08:29.834Z,96703.34
2023-04-26T14:10:56.273Z,96704.69
2023-04-26T14:13:22.713Z,96713.34
2023-04-26T14:15:49.141Z,96713.44
2023-04-26T14:18:15.679Z,96719.72
2023-04-26T14:20:44.297Z,96716.34
2023-04-26T14:23:10.748Z,96720.75
2023-04-26T14:25:37.186Z,96711.44
2023-04-26T14:28:03.565Z,96720.75
2023-04-26T14:30:29.991Z,96712.09
2023-04-26T14:32:56.513Z,96716.78
2023-04-26T14:35:22.961Z,96724.41
2023-04-26T14:37:49.513Z,96719.13
2023-04-26T14:40:16.289Z,96723.47
2023-04-26T14:42:42.791Z,96723.88
2023-04-26T14:45:09.421Z,96710.78
2023-04-26T14:47:36.105Z,96705.88
2023-04-26T14:50:07.236Z,96713.53
2023-04-26T14:52:33.683Z,96711.75
2023-04-26T14:55:00.142Z,96702.56
2023-04-26T14:57:26.813Z,96702.75
2023-04-26T14:59:53.252Z,96702.84
2023-04-26T15:02:19.714Z,96707.78
2023-04-26T15:04:46.567Z,96713.47
2023-04-26T15:07:21.043Z,96709.34
2023-04-26T15:09:57.509Z,96714.31
2023-04-26T15:12:24.422Z,96717.56
2023-04-26T15:14:51.060Z,96716.06
2023-04-26T15:17:17.461Z,96711.00
2023-04-26T15:19:51.976Z,96712.91
2023-04-26T15:22:18.658Z,96719.56
2023-04-26T15:24:45.132Z,96707.97
2023-04-26T15:27:12.688Z,96712.84
2023-04-26T15:29:41.107Z,96711.25
2023-04-26T15:32:07.720Z,96708.06
2023-04-26T15:34:34.896Z,96716.25
2023-04-26T15:37:02.994Z,96708.09
2023-04-26T15:39:29.386Z,96713.06
2023-04-26T15:41:55.801Z,96721.91
2023-04-26T15:44:24.114Z,96716.19
2023-04-26T15:46:50.939Z,96719.56
2023-04-26T15:49:17.458Z,96726.78
2023-04-26T15:51:43.844Z,96714.63
2023-04-26T15:54:10.343Z,96715.34
2023-04-26T15:56:36.803Z,96720.84
2023-04-26T15:59:03.413Z,96711.63
2023-04-26T16:01:30.218Z,96716.16
2023-04-26T16:03:58.337Z,96710.69
2023-04-26T16:06:25.061Z,96709.69
2023-04-26T16:08:51.616Z,96718.34
2023-04-26T16:11:18.020Z,96717.06
2023-04-26T16:13:44.936Z,96709.94
2023-04-26T16:16:11.334Z,96712.25
2023-04-26T16:18:37.695Z,96723.22
2023-04-26T16:21:04.071Z,96730.94
2023-04-26T16:23:30.510Z,96724.34
2023-04-26T16:25:57.133Z,96722.16
2023-04-26T16:28:23.499Z,96726.56
2023-04-26T16:30:49.962Z,96726.31
2023-04-26T16:33:16.473Z,96725.19
2023-04-26T16:35:42.891Z,96735.75
2023-04-26T16:38:09.400Z,96728.06
2023-04-26T16:40:35.861Z,96727.75
2023-04-26T16:43:02.247Z,96722.81
2023-04-26T16:45:28.684Z,96733.44
2023-04-26T16:47:55.131Z,96732.38
2023-04-26T16:50:21.564Z,96735.81
2023-04-26T16:52:47.967Z,96742.22
2023-04-26T16:55:14.403Z,96742.00
2023-04-26T16:57:40.958Z,96738.09
2023-04-26T17:00:07.339Z,96738.16
2023-04-26T17:02:33.974Z,96745.88
2023-04-26T17:05:00.525Z,96739.94
2023-04-26T17:07:27.059Z,96737.97
2023-04-26T17:09:53.646Z,96739.25
2023-04-26T17:12:20.065Z,96742.72
2023-04-26T17:14:46.468Z,96744.19
2023-04-26T17:17:12.883Z,96748.19
2023-04-26T17:19:39.477Z,96753.59
2023-04-26T17:22:05.980Z,96747.44
2023-04-26T17:24:32.429Z,96748.44
2023-04-26T17:26:58.809Z,96752.81
2023-04-26T17:29:25.176Z,96755.47
2023-04-26T17:31:51.610Z,96757.72
2023-04-26T17:34:18.029Z,96762.59
2023-04-26T17:36:44.402Z,96760.28
2023-04-26T17:39:10.862Z,96767.81
2023-04-26T17:41:37.250Z,96767.53
2023-04-26T17:44:03.790Z,96768.41
2023-04-26T17:46:30.401Z,96766.28
2023-04-26T17:48:56.803Z,96766.38
2023-04-26T17:51:23.317Z,96766.63
2023-04-26T17:53:50.251Z,96771.56
2023-04-26T17:56:16.626Z,96768.63
2023-04-26T17:58:43.150Z,96772.72
2023-04-26T18:01:09.714Z,96781.41
2023-04-26T18:03:36.417Z,96794.66
2023-04-26T18:06:05.291Z,96790.06
2023-04-26T18:08:31.854Z,96795.19
2023-04-26T18:10:58.340Z,96791.25
2023-04-26T18:13:24.827Z,96792.38
2023-04-26T18:15:51.242Z,96799.06
2023-04-26T18:18:17.916Z,96808.19
2023-04-26T18:20:44.390Z,96805.88
2023-04-26T18:23:10.760Z,96794.28
2023-04-26T18:25:37.186Z,96777.31
2023-04-26T18:28:03.714Z,96775.94
2023-04-26T18:30:30.178Z,96786.47
2023-04-26T18:32:56.595Z,96781.56
2023-04-26T18:35:23.127Z,96778.16
2023-04-26T18:37:49.533Z,96790.28
2023-04-26T18:40:16.072Z,96788.66
2023-04-26T18:42:42.488Z,96800.00
2023-04-26T18:45:08.977Z,96801.28
2023-04-26T18:47:35.408Z,96800.78
2023-04-26T18:50:01.920Z,96801.06
2023-04-26T18:52:28.487Z,96818.53
2023-04-26T18:54:54.931Z,96815.31
2023-04-26T18:57:21.344Z,96818.81
2023-04-26T18:59:47.851Z,96817.50
2023-04-26T19:02:14.340Z,96829.88
2023-04-26T19:04:40.865Z,96832.56
2023-04-26T19:07:10.383Z,96829.34
2023-04-26T19:09:43.221Z,96836.59
2023-04-26T19:12:13.613Z,96837.13
2023-04-26T19:14:40.165Z,96842.50
2023-04-26T19:17:06.533Z,96847.09
2023-04-26T19:19:33.023Z,96844.41
2023-04-26T19:21:59.498Z,96847.88
2023-04-26T19:24:25.899Z,96838.75
2023-04-26T19:26:52.306Z,96847.09
2023-04-26T19:29:18.740Z,96845.47
2023-04-26T19:31:45.204Z,96850.03
2023-04-26T19:34:12.862Z,96850.03
2023-04-26T19:36:39.394Z,96846.81
2023-04-26T19:39:05.974Z,96856.22
2023-04-26T19:41:32.398Z,96854.34
2023-04-26T19:43:58.789Z,96858.63
2023-04-26T19:46:25.192Z,96859.44
2023-04-26T19:48:51.907Z,96868.56
2023-04-26T19:51:18.324Z,96861.31
2023-04-26T19:53:44.825Z,96857.56
2023-04-26T19:56:13.570Z,96865.59
2023-04-26T19:58:39.966Z,96862.66
2023-04-26T20:01:06.541Z,96871.25
2023-04-26T20:03:33.325Z,96889.28
2023-04-26T20:05:59.934Z,96887.09
2023-04-26T20:08:26.364Z,96880.91
2023-04-26T20:10:52.969Z,96884.34
2023-04-26T20:13:19.350Z,96873.09
2023-04-26T20:15:45.749Z,96883.31
2023-04-26T20:18:14.914Z,96880.56
2023-04-26T20:20:41.416Z,96882.72
2023-04-26T20:23:08.046Z,96884.59
2023-04-26T20:25:34.683Z,96894.25
2023-04-26T20:28:01.064Z,96896.88
2023-04-26T20:30:27.457Z,96893.47
2023-04-26T20:32:54.007Z,96895.31
2023-04-26T20:35:20.458Z,96896.34
2023-04-26T20:37:46.850Z,96894.19
2023-04-26T20:40:13.308Z,96892.03
2023-04-26T20:42:41.659Z,96891.22
2023-04-26T20:45:08.015Z,96897.34
2023-04-26T20:47:34.650Z,96900.84
2023-04-26T20:50:01.224Z,96896.25
2023-04-26T20:52:27.630Z,96896.44
2023-04-26T20:54:54.077Z,96894.84
2023-04-26T20:57:20.567Z,96884.63
2023-04-26T20:59:46.954Z,96894.25
2023-04-26T21:02:13.473Z,96898.28
2023-04-26T21:04:40.231Z,96895.34
2023-04-26T21:07:06.751Z,96892.59
2023-04-26T21:09:33.365Z,96895.50
2023-04-26T21:11:59.775Z,96894.66
2023-04-26T21:14:26.171Z,96899.75
2023-04-26T21:16:54.049Z,96905.19
2023-04-26T21:19:20.425Z,96908.38
2023-04-26T21:21:46.876Z,96906.50
2023-04-26T21:24:13.312Z,96906.50
2023-04-26T21:26:39.709Z,96903.94
2023-04-26T21:29:06.208Z,96904.88
2023-04-26T21:31:32.709Z,96904.38
2023-04-26T21:33:59.217Z,96901.94
2023-04-26T21:36:25.594Z,96894.66
2023-04-26T21:38:52.100Z,96890.66
2023-04-26T21:41:18.534Z,96893.63
2023-04-26T21:43:44.933Z,96887.81
2023-04-26T21:46:11.524Z,96885.75
2023-04-26T21:48:37.948Z,96893.84
2023-04-26T21:51:04.460Z,96897.34
2023-04-26T21:53:31.205Z,96884.59
2023-04-26T21:55:57.620Z,96895.94
2023-04-26T21:58:24.014Z,96899.69
2023-04-26T22:00:50.526Z,96900.09
2023-04-26T22:03:17.194Z,96899.91
2023-04-26T22:05:43.711Z,96910.78
2023-04-26T22:08:10.141Z,96917.00
2023-04-26T22:10:36.550Z,96912.94
2023-04-26T22:13:03.044Z,96915.13
2023-04-26T22:15:29.487Z,96917.28
2023-04-26T22:17:55.885Z,96914.94
2023-04-26T22:20:22.322Z,96915.13
2023-04-26T22:22:48.780Z,96921.97
2023-04-26T22:25:15.194Z,96918.25
2023-04-26T22:27:41.567Z,96914.16
2023-04-26T22:30:23.026Z,96926.59
2023-04-26T22:32:51.595Z,96935.31
2023-04-26T22:35:18.047Z,96934.56
2023-04-26T22:37:44.420Z,96930.00
2023-04-26T22:40:10.825Z,96930.97
2023-04-26T22:42:37.239Z,96927.84
2023-04-26T22:45:03.640Z,96941.63
2023-04-26T22:47:30.064Z,96940.09
2023-04-26T22:49:56.455Z,96956.19
2023-04-26T22:52:31.605Z,96960.88
2023-04-26T22:54:58.449Z,96959.97
2023-04-26T22:57:24.829Z,96950.44
2023-04-26T22:59:51.221Z,96950.25
2023-04-26T23:02:17.689Z,96969.00
2023-04-26T23:04:44.205Z,96953.44
2023-04-26T23:07:10.657Z,96951.84
2023-04-26T23:09:37.047Z,96950.16
2023-04-26T23:12:03.476Z,96954.53
2023-04-26T23:14:29.891Z,96951.25
2023-04-26T23:16:56.382Z,96953.25
2023-04-26T23:19:22.792Z,96960.66
2023-04-26T23:21:49.175Z,96958.22
2023-04-26T23:24:15.519Z,96969.50
2023-04-26T23:26:41.933Z,96973.16
2023-04-26T23:29:08.288Z,96969.50
2023-04-26T23:31:34.698Z,96968.91
2023-04-26T23:34:01.159Z,96974.88
2023-04-26T23:36:27.566Z,96969.94
2023-04-26T23:38:53.942Z,96970.25
2023-04-26T23:41:20.326Z,96973.22
2023-04-26T23:43:46.679Z,96976.25
2023-04-26T23:46:13.062Z,96964.03
2023-04-26T23:48:39.471Z,96963.09
2023-04-26T23:51:05.859Z,96955.31
2023-04-26T23:53:32.238Z,96954.59
2023-04-26T23:55:58.647Z,96962.81
2023-04-26T23:58:25.058Z,96958.28
